sensor_id;sensor_type;location;lat;lon;timestamp;P1;durP1;ratioP1;P2;durP2;ratioP2
11431;SDS011;5772;50.940;6.782;2022-12-18T15:10:08;47.73;;;44.67;;
11431;SDS011;5772;50.940;6.782;2022-12-18T15:12:36;62.57;;;58.53;;
11431;SDS011;5772;50.940;6.782;2022-12-18T15:15:02;64.40;;;60.43;;
11431;SDS011;5772;50.940;6.782;2022-12-18T15:17:29;66.17;;;62.17;;
11431;SDS011;5772;50.940;6.782;2022-12-18T15:19:58;76.63;;;72.13;;
11431;SDS011;5772;50.940;6.782;2022-12-18T15:22:26;81.57;;;76.50;;
11431;SDS011;5772;50.940;6.782;2022-12-18T15:24:52;76.03;;;71.30;;
11431;SDS011;5772;50.940;6.782;2022-12-18T15:27:23;78.93;;;74.00;;
11431;SDS011;5772;50.940;6.782;2022-12-18T15:32:41;76.27;;;71.17;;
11431;SDS011;5772;50.940;6.782;2022-12-18T15:35:08;69.67;;;65.47;;
11431;SDS011;5772;50.940;6.782;2022-12-18T15:37:38;76.80;;;71.93;;
11431;SDS011;5772;50.940;6.782;2022-12-18T15:40:03;75.50;;;71.17;;
11431;SDS011;5772;50.940;6.782;2022-12-18T15:42:31;77.67;;;72.77;;
11431;SDS011;5772;50.940;6.782;2022-12-18T15:44:56;74.00;;;68.83;;
11431;SDS011;5772;50.940;6.782;2022-12-18T15:47:22;65.37;;;61.07;;
11431;SDS011;5772;50.940;6.782;2022-12-18T15:49:47;76.13;;;71.57;;
11431;SDS011;5772;50.940;6.782;2022-12-18T15:52:12;64.73;;;60.63;;
11431;SDS011;5772;50.940;6.782;2022-12-18T15:54:38;66.60;;;62.10;;
11431;SDS011;5772;50.940;6.782;2022-12-18T15:57:04;63.43;;;59.50;;
11431;SDS011;5772;50.940;6.782;2022-12-18T15:59:30;64.90;;;60.87;;
11431;SDS011;5772;50.940;6.782;2022-12-18T16:01:56;62.57;;;58.33;;
11431;SDS011;5772;50.940;6.782;2022-12-18T16:04:21;68.57;;;64.00;;
11431;SDS011;5772;50.940;6.782;2022-12-18T16:06:47;64.73;;;60.77;;
11431;SDS011;5772;50.940;6.782;2022-12-18T16:09:13;69.10;;;64.40;;
11431;SDS011;5772;50.940;6.782;2022-12-18T16:11:39;63.17;;;58.80;;
11431;SDS011;5772;50.940;6.782;2022-12-18T16:14:10;62.63;;;58.57;;
11431;SDS011;5772;50.940;6.782;2022-12-18T16:16:40;68.57;;;64.17;;
11431;SDS011;5772;50.940;6.782;2022-12-18T16:19:06;71.43;;;67.13;;
11431;SDS011;5772;50.940;6.782;2022-12-18T16:21:31;66.67;;;62.10;;
11431;SDS011;5772;50.940;6.782;2022-12-18T16:23:56;72.30;;;67.73;;
11431;SDS011;5772;50.940;6.782;2022-12-18T16:26:22;74.03;;;69.03;;
11431;SDS011;5772;50.940;6.782;2022-12-18T16:28:47;70.17;;;65.57;;
11431;SDS011;5772;50.940;6.782;2022-12-18T16:31:13;72.50;;;67.63;;
11431;SDS011;5772;50.940;6.782;2022-12-18T16:33:39;70.23;;;65.33;;
11431;SDS011;5772;50.940;6.782;2022-12-18T16:36:05;67.57;;;63.17;;
11431;SDS011;5772;50.940;6.782;2022-12-18T16:38:30;71.67;;;67.60;;
11431;SDS011;5772;50.940;6.782;2022-12-18T16:40:56;71.50;;;67.30;;
11431;SDS011;5772;50.940;6.782;2022-12-18T16:43:21;74.30;;;69.80;;
11431;SDS011;5772;50.940;6.782;2022-12-18T16:45:46;80.80;;;75.70;;
11431;SDS011;5772;50.940;6.782;2022-12-18T16:48:12;71.73;;;67.33;;
11431;SDS011;5772;50.940;6.782;2022-12-18T16:50:39;72.17;;;67.57;;
11431;SDS011;5772;50.940;6.782;2022-12-18T16:53:04;75.20;;;70.40;;
11431;SDS011;5772;50.940;6.782;2022-12-18T16:55:29;78.10;;;73.00;;
11431;SDS011;5772;50.940;6.782;2022-12-18T16:57:54;79.57;;;74.53;;
11431;SDS011;5772;50.940;6.782;2022-12-18T17:00:20;79.97;;;74.83;;
11431;SDS011;5772;50.940;6.782;2022-12-18T17:02:45;79.53;;;74.13;;
11431;SDS011;5772;50.940;6.782;2022-12-18T17:05:10;81.63;;;76.40;;
11431;SDS011;5772;50.940;6.782;2022-12-18T17:07:37;83.57;;;78.03;;
11431;SDS011;5772;50.940;6.782;2022-12-18T17:10:03;82.70;;;76.80;;
11431;SDS011;5772;50.940;6.782;2022-12-18T17:12:28;76.10;;;71.10;;
11431;SDS011;5772;50.940;6.782;2022-12-18T17:14:54;74.80;;;70.20;;
11431;SDS011;5772;50.940;6.782;2022-12-18T17:17:19;80.07;;;75.50;;
11431;SDS011;5772;50.940;6.782;2022-12-18T17:19:45;78.37;;;73.03;;
11431;SDS011;5772;50.940;6.782;2022-12-18T17:22:10;81.20;;;75.60;;
11431;SDS011;5772;50.940;6.782;2022-12-18T17:24:37;81.67;;;76.00;;
11431;SDS011;5772;50.940;6.782;2022-12-18T17:27:02;84.57;;;78.97;;
11431;SDS011;5772;50.940;6.782;2022-12-18T17:29:28;82.93;;;77.37;;
11431;SDS011;5772;50.940;6.782;2022-12-18T17:31:53;78.87;;;73.97;;
11431;SDS011;5772;50.940;6.782;2022-12-18T17:34:19;86.30;;;80.60;;
11431;SDS011;5772;50.940;6.782;2022-12-18T17:36:44;86.73;;;81.53;;
11431;SDS011;5772;50.940;6.782;2022-12-18T17:39:13;84.90;;;79.57;;
11431;SDS011;5772;50.940;6.782;2022-12-18T17:41:42;84.33;;;79.23;;
11431;SDS011;5772;50.940;6.782;2022-12-18T17:44:08;78.77;;;74.30;;
11431;SDS011;5772;50.940;6.782;2022-12-18T17:46:33;88.37;;;82.87;;
11431;SDS011;5772;50.940;6.782;2022-12-18T17:48:59;84.83;;;79.33;;
11431;SDS011;5772;50.940;6.782;2022-12-18T17:51:26;82.83;;;77.30;;
11431;SDS011;5772;50.940;6.782;2022-12-18T17:53:52;84.40;;;78.27;;
11431;SDS011;5772;50.940;6.782;2022-12-18T17:56:18;78.50;;;73.23;;
11431;SDS011;5772;50.940;6.782;2022-12-18T17:58:46;77.30;;;72.33;;
11431;SDS011;5772;50.940;6.782;2022-12-18T18:01:11;77.57;;;72.67;;
11431;SDS011;5772;50.940;6.782;2022-12-18T18:03:38;79.67;;;74.43;;
11431;SDS011;5772;50.940;6.782;2022-12-18T18:06:04;80.10;;;74.47;;
11431;SDS011;5772;50.940;6.782;2022-12-18T18:08:29;85.33;;;79.70;;
11431;SDS011;5772;50.940;6.782;2022-12-18T18:10:55;79.57;;;74.37;;
11431;SDS011;5772;50.940;6.782;2022-12-18T18:13:21;80.70;;;74.87;;
11431;SDS011;5772;50.940;6.782;2022-12-18T18:15:55;82.57;;;76.70;;
11431;SDS011;5772;50.940;6.782;2022-12-18T18:18:20;78.03;;;72.60;;
11431;SDS011;5772;50.940;6.782;2022-12-18T18:20:46;81.03;;;75.07;;
11431;SDS011;5772;50.940;6.782;2022-12-18T18:23:11;81.83;;;76.77;;
11431;SDS011;5772;50.940;6.782;2022-12-18T18:25:37;76.57;;;71.73;;
11431;SDS011;5772;50.940;6.782;2022-12-18T18:28:02;82.03;;;76.50;;
11431;SDS011;5772;50.940;6.782;2022-12-18T18:30:27;80.50;;;74.47;;
11431;SDS011;5772;50.940;6.782;2022-12-18T18:32:54;77.30;;;71.23;;
11431;SDS011;5772;50.940;6.782;2022-12-18T18:35:19;82.20;;;76.27;;
11431;SDS011;5772;50.940;6.782;2022-12-18T18:37:46;81.93;;;76.43;;
11431;SDS011;5772;50.940;6.782;2022-12-18T18:40:11;78.77;;;73.13;;
11431;SDS011;5772;50.940;6.782;2022-12-18T18:42:37;77.90;;;72.63;;
11431;SDS011;5772;50.940;6.782;2022-12-18T18:45:02;77.13;;;71.20;;
11431;SDS011;5772;50.940;6.782;2022-12-18T18:47:28;77.17;;;72.20;;
11431;SDS011;5772;50.940;6.782;2022-12-18T18:49:55;76.80;;;71.97;;
11431;SDS011;5772;50.940;6.782;2022-12-18T18:52:20;77.93;;;72.93;;
11431;SDS011;5772;50.940;6.782;2022-12-18T18:54:46;138.43;;;114.53;;
11431;SDS011;5772;50.940;6.782;2022-12-18T18:57:14;106.53;;;95.67;;
11431;SDS011;5772;50.940;6.782;2022-12-18T18:59:40;76.27;;;70.30;;
11431;SDS011;5772;50.940;6.782;2022-12-18T19:02:05;80.73;;;75.50;;
11431;SDS011;5772;50.940;6.782;2022-12-18T19:04:32;83.03;;;77.97;;
11431;SDS011;5772;50.940;6.782;2022-12-18T19:06:59;77.53;;;72.07;;
11431;SDS011;5772;50.940;6.782;2022-12-18T19:09:25;113.63;;;101.47;;
11431;SDS011;5772;50.940;6.782;2022-12-18T19:11:50;81.83;;;76.40;;
11431;SDS011;5772;50.940;6.782;2022-12-18T19:14:15;79.37;;;73.97;;
11431;SDS011;5772;50.940;6.782;2022-12-18T19:19:32;73.73;;;67.73;;
11431;SDS011;5772;50.940;6.782;2022-12-18T19:21:57;80.37;;;74.93;;
11431;SDS011;5772;50.940;6.782;2022-12-18T19:24:22;76.87;;;71.80;;
11431;SDS011;5772;50.940;6.782;2022-12-18T19:26:48;80.50;;;74.57;;
11431;SDS011;5772;50.940;6.782;2022-12-18T19:29:13;70.33;;;64.47;;
11431;SDS011;5772;50.940;6.782;2022-12-18T19:31:38;82.83;;;76.60;;
11431;SDS011;5772;50.940;6.782;2022-12-18T19:34:04;76.27;;;70.40;;
11431;SDS011;5772;50.940;6.782;2022-12-18T19:36:31;78.33;;;73.00;;
11431;SDS011;5772;50.940;6.782;2022-12-18T19:38:58;73.10;;;68.53;;
11431;SDS011;5772;50.940;6.782;2022-12-18T19:41:25;76.80;;;71.03;;
11431;SDS011;5772;50.940;6.782;2022-12-18T19:43:51;71.00;;;65.90;;
11431;SDS011;5772;50.940;6.782;2022-12-18T19:46:17;74.10;;;68.07;;
11431;SDS011;5772;50.940;6.782;2022-12-18T19:48:44;75.47;;;69.97;;
11431;SDS011;5772;50.940;6.782;2022-12-18T19:51:10;72.77;;;67.40;;
11431;SDS011;5772;50.940;6.782;2022-12-18T19:53:38;72.70;;;66.83;;
11431;SDS011;5772;50.940;6.782;2022-12-18T19:56:04;71.47;;;66.73;;
11431;SDS011;5772;50.940;6.782;2022-12-18T19:58:30;78.60;;;72.83;;
11431;SDS011;5772;50.940;6.782;2022-12-18T20:00:55;73.13;;;68.07;;
11431;SDS011;5772;50.940;6.782;2022-12-18T20:03:21;78.87;;;73.03;;
11431;SDS011;5772;50.940;6.782;2022-12-18T20:05:46;82.00;;;76.57;;
11431;SDS011;5772;50.940;6.782;2022-12-18T20:08:11;80.20;;;74.87;;
11431;SDS011;5772;50.940;6.782;2022-12-18T20:10:38;91.37;;;84.77;;
11431;SDS011;5772;50.940;6.782;2022-12-18T20:13:04;85.43;;;79.17;;
11431;SDS011;5772;50.940;6.782;2022-12-18T20:15:29;79.10;;;74.27;;
11431;SDS011;5772;50.940;6.782;2022-12-18T20:17:54;80.60;;;75.23;;
11431;SDS011;5772;50.940;6.782;2022-12-18T20:20:20;80.70;;;75.00;;
11431;SDS011;5772;50.940;6.782;2022-12-18T20:22:45;82.17;;;76.47;;
11431;SDS011;5772;50.940;6.782;2022-12-18T20:25:10;77.37;;;71.63;;
11431;SDS011;5772;50.940;6.782;2022-12-18T20:27:37;82.87;;;77.67;;
11431;SDS011;5772;50.940;6.782;2022-12-18T20:30:03;79.10;;;73.57;;
11431;SDS011;5772;50.940;6.782;2022-12-18T20:32:29;80.23;;;74.57;;
11431;SDS011;5772;50.940;6.782;2022-12-18T20:34:54;82.00;;;76.27;;
11431;SDS011;5772;50.940;6.782;2022-12-18T20:37:20;79.93;;;73.80;;
11431;SDS011;5772;50.940;6.782;2022-12-18T20:39:45;80.77;;;75.43;;
11431;SDS011;5772;50.940;6.782;2022-12-18T20:42:10;80.33;;;74.53;;
11431;SDS011;5772;50.940;6.782;2022-12-18T20:44:37;81.87;;;75.63;;
11431;SDS011;5772;50.940;6.782;2022-12-18T20:47:03;77.47;;;71.53;;
11431;SDS011;5772;50.940;6.782;2022-12-18T20:49:28;79.40;;;73.80;;
11431;SDS011;5772;50.940;6.782;2022-12-18T20:51:55;74.10;;;69.17;;
11431;SDS011;5772;50.940;6.782;2022-12-18T20:54:21;76.50;;;70.73;;
11431;SDS011;5772;50.940;6.782;2022-12-18T20:56:48;74.40;;;69.13;;
11431;SDS011;5772;50.940;6.782;2022-12-18T20:59:13;79.60;;;73.47;;
11431;SDS011;5772;50.940;6.782;2022-12-18T21:01:40;75.73;;;69.97;;
11431;SDS011;5772;50.940;6.782;2022-12-18T21:04:06;74.00;;;68.77;;
11431;SDS011;5772;50.940;6.782;2022-12-18T21:06:31;75.80;;;70.33;;
11431;SDS011;5772;50.940;6.782;2022-12-18T21:08:56;76.53;;;70.80;;
11431;SDS011;5772;50.940;6.782;2022-12-18T21:11:26;77.83;;;72.43;;
11431;SDS011;5772;50.940;6.782;2022-12-18T21:13:53;71.53;;;66.60;;
11431;SDS011;5772;50.940;6.782;2022-12-18T21:16:18;72.77;;;67.33;;
11431;SDS011;5772;50.940;6.782;2022-12-18T21:18:45;71.60;;;66.67;;
11431;SDS011;5772;50.940;6.782;2022-12-18T21:21:10;72.83;;;67.17;;
11431;SDS011;5772;50.940;6.782;2022-12-18T21:23:36;77.33;;;71.30;;
11431;SDS011;5772;50.940;6.782;2022-12-18T21:26:13;72.00;;;66.80;;
11431;SDS011;5772;50.940;6.782;2022-12-18T21:28:39;70.93;;;65.87;;
11431;SDS011;5772;50.940;6.782;2022-12-18T21:31:05;77.70;;;72.07;;
11431;SDS011;5772;50.940;6.782;2022-12-18T21:33:30;72.40;;;67.00;;
11431;SDS011;5772;50.940;6.782;2022-12-18T21:35:57;68.07;;;62.53;;
11431;SDS011;5772;50.940;6.782;2022-12-18T21:38:22;64.00;;;59.10;;
11431;SDS011;5772;50.940;6.782;2022-12-18T21:40:48;58.03;;;53.80;;
11431;SDS011;5772;50.940;6.782;2022-12-18T21:43:13;53.10;;;48.20;;
11431;SDS011;5772;50.940;6.782;2022-12-18T21:45:38;53.50;;;48.43;;
11431;SDS011;5772;50.940;6.782;2022-12-18T21:48:04;49.70;;;45.17;;
11431;SDS011;5772;50.940;6.782;2022-12-18T21:50:29;46.90;;;42.63;;
11431;SDS011;5772;50.940;6.782;2022-12-18T21:52:56;44.70;;;40.43;;
11431;SDS011;5772;50.940;6.782;2022-12-18T21:55:21;47.40;;;43.00;;
11431;SDS011;5772;50.940;6.782;2022-12-18T21:57:47;45.53;;;42.00;;
11431;SDS011;5772;50.940;6.782;2022-12-18T22:00:13;46.50;;;42.27;;
11431;SDS011;5772;50.940;6.782;2022-12-18T22:02:39;45.10;;;40.97;;
11431;SDS011;5772;50.940;6.782;2022-12-18T22:05:04;46.40;;;42.40;;
11431;SDS011;5772;50.940;6.782;2022-12-18T22:07:30;51.67;;;47.03;;
11431;SDS011;5772;50.940;6.782;2022-12-18T22:09:57;46.57;;;42.20;;
11431;SDS011;5772;50.940;6.782;2022-12-18T22:12:23;47.50;;;43.47;;
11431;SDS011;5772;50.940;6.782;2022-12-18T22:14:48;52.67;;;47.77;;
11431;SDS011;5772;50.940;6.782;2022-12-18T22:17:13;49.50;;;45.00;;
11431;SDS011;5772;50.940;6.782;2022-12-18T22:19:39;52.53;;;47.67;;
11431;SDS011;5772;50.940;6.782;2022-12-18T22:22:04;50.70;;;45.27;;
11431;SDS011;5772;50.940;6.782;2022-12-18T22:24:29;55.17;;;51.07;;
11431;SDS011;5772;50.940;6.782;2022-12-18T22:26:56;50.37;;;46.03;;
11431;SDS011;5772;50.940;6.782;2022-12-18T22:29:22;54.80;;;50.47;;
11431;SDS011;5772;50.940;6.782;2022-12-18T22:31:48;53.33;;;48.47;;
11431;SDS011;5772;50.940;6.782;2022-12-18T22:34:14;52.90;;;48.40;;
11431;SDS011;5772;50.940;6.782;2022-12-18T22:36:40;54.60;;;50.17;;
11431;SDS011;5772;50.940;6.782;2022-12-18T22:39:08;55.57;;;50.87;;
11431;SDS011;5772;50.940;6.782;2022-12-18T22:41:36;60.13;;;54.17;;
11431;SDS011;5772;50.940;6.782;2022-12-18T22:44:03;62.83;;;57.23;;
11431;SDS011;5772;50.940;6.782;2022-12-18T22:46:29;69.57;;;64.40;;
11431;SDS011;5772;50.940;6.782;2022-12-18T22:48:55;59.23;;;54.77;;
11431;SDS011;5772;50.940;6.782;2022-12-18T22:51:21;55.10;;;50.63;;
11431;SDS011;5772;50.940;6.782;2022-12-18T22:53:46;56.40;;;51.53;;
11431;SDS011;5772;50.940;6.782;2022-12-18T22:56:12;58.30;;;53.63;;
11431;SDS011;5772;50.940;6.782;2022-12-18T22:58:38;60.23;;;55.80;;
11431;SDS011;5772;50.940;6.782;2022-12-18T23:01:05;54.57;;;50.43;;
11431;SDS011;5772;50.940;6.782;2022-12-18T23:03:31;65.73;;;60.50;;
11431;SDS011;5772;50.940;6.782;2022-12-18T23:06:00;55.07;;;50.37;;
11431;SDS011;5772;50.940;6.782;2022-12-18T23:08:27;54.20;;;49.73;;
